Terminal Aerodrome Forecast
Issued by NWS Greer, SC

Home | Current Version | Previous Version | Text Only | Print | Product List | Glossary On
Versions: 1 2 3 4 5 6 7 8 9 10 11 12 13 14 15 16 17 18 19 20 21 22 23 24 25 26 27 28 29 30 31 32 33 34 35 36 37 38 39 40
000
FTUS42 KGSP 261129
TAFGSP
TAF
KGSP 261129Z 2612/2712 07005KT P6SM OVC008
     FM261500 08007KT P6SM OVC020
     FM261800 09008KT P6SM VCSH OVC035
     FM270200 06005KT P6SM BKN045
     FM270400 05006KT P6SM BKN019
     FM270600 05007KT P6SM OVC008 PROB30 2706/2712 4SM -SHRA BR
      OVC004=

USA.gov is the U.S. government's official web portal to all federal, state and local government web resources and services.